Time;durP1;ratioP1;P1;durP2;ratioP2;P2;SDS_P1;SDS_P2;PMS_P1;PMS_P2;Temp;Humidity;BMP_temperature;BMP_pressure;BME280_temperature;BME280_humidity;BME280_pressure;Samples;Min_cycle;Max_cycle;Signal;HPM_P1;HPM_P2
2021/09/24 00:00:20;;;;;;;42.10;5.43;;;12.00;99.90;;;;;;5052250;28;20471;-82
2021/09/24 00:02:45;;;;;;;25.98;4.18;;;12.00;99.90;;;;;;5053514;28;20405;-81
2021/09/24 00:05:11;;;;;;;30.83;4.68;;;12.00;99.90;;;;;;5054485;28;20033;-81
2021/09/24 00:07:37;;;;;;;30.67;5.68;;;12.00;99.90;;;;;;5039479;28;20485;-81
2021/09/24 00:10:05;;;;;;;46.95;4.53;;;12.00;99.90;;;;;;5034638;28;20025;-81
2021/09/24 00:12:31;;;;;;;26.98;5.13;;;12.00;99.90;;;;;;5034678;28;20022;-81
2021/09/24 00:14:56;;;;;;;44.67;5.80;;;12.00;99.90;;;;;;5033015;28;20095;-81
2021/09/24 00:17:22;;;;;;;41.45;5.30;;;12.00;99.90;;;;;;5032280;28;20025;-82
2021/09/24 00:19:47;;;;;;;31.52;4.53;;;12.00;99.90;;;;;;5033270;28;20052;-81
2021/09/24 00:22:13;;;;;;;36.70;4.60;;;12.00;99.90;;;;;;5034545;28;20116;-81
2021/09/24 00:24:38;;;;;;;44.55;5.60;;;11.90;99.90;;;;;;5032945;28;20026;-81
2021/09/24 00:27:05;;;;;;;41.08;4.70;;;12.00;99.90;;;;;;5032915;28;20025;-81
2021/09/24 00:29:31;;;;;;;36.03;5.68;;;11.90;99.90;;;;;;5032965;28;20083;-81
2021/09/24 00:31:57;;;;;;;57.83;6.45;;;11.90;99.90;;;;;;5034299;28;20029;-81
2021/09/24 00:34:23;;;;;;;39.45;4.75;;;11.90;99.90;;;;;;5033949;28;20409;-81
2021/09/24 00:36:48;;;;;;;41.40;5.53;;;11.80;99.90;;;;;;5033956;28;20057;-81
2021/09/24 00:39:14;;;;;;;41.35;5.57;;;11.80;99.90;;;;;;5034233;28;20033;-81
2021/09/24 00:41:39;;;;;;;30.17;4.88;;;11.80;99.90;;;;;;5034134;28;20031;-81
2021/09/24 00:44:05;;;;;;;30.38;4.18;;;11.80;99.90;;;;;;5033722;28;20040;-81
2021/09/24 00:46:31;;;;;;;46.35;5.35;;;11.80;99.90;;;;;;5032763;28;20040;-81
2021/09/24 00:48:56;;;;;;;39.53;4.30;;;11.80;99.90;;;;;;5033815;28;20091;-81
2021/09/24 00:51:22;;;;;;;32.20;4.32;;;11.60;99.90;;;;;;5032696;28;20033;-80
2021/09/24 00:53:48;;;;;;;40.70;4.00;;;11.60;99.90;;;;;;5033628;28;20052;-81
2021/09/24 00:56:15;;;;;;;30.15;4.57;;;11.60;99.90;;;;;;5033906;28;20021;-80
2021/09/24 00:58:40;;;;;;;42.70;5.97;;;11.50;99.90;;;;;;5035973;28;20436;-81
2021/09/24 01:01:06;;;;;;;23.30;4.00;;;11.50;99.90;;;;;;5053748;28;20097;-80
2021/09/24 01:03:31;;;;;;;26.70;6.38;;;11.60;99.90;;;;;;5053297;28;20512;-81
2021/09/24 01:05:57;;;;;;;45.63;6.70;;;11.70;99.90;;;;;;5053370;28;20051;-81
2021/09/24 01:08:22;;;;;;;24.40;4.47;;;11.60;99.90;;;;;;5042109;28;20059;-82
2021/09/24 01:10:48;;;;;;;43.58;5.68;;;11.60;99.90;;;;;;5032739;28;20021;-80
2021/09/24 01:13:14;;;;;;;35.20;6.28;;;11.60;99.90;;;;;;5033196;28;20036;-81
2021/09/24 01:15:40;;;;;;;24.48;3.78;;;11.60;99.90;;;;;;5032077;28;20025;-80
2021/09/24 01:18:06;;;;;;;31.90;5.97;;;11.70;99.90;;;;;;5032150;28;20037;-81
2021/09/24 01:20:32;;;;;;;41.72;5.45;;;11.80;99.90;;;;;;5033485;28;20051;-80
2021/09/24 01:22:58;;;;;;;42.75;6.55;;;11.80;99.90;;;;;;5031635;28;20037;-82
2021/09/24 01:25:24;;;;;;;31.50;3.95;;;11.90;99.90;;;;;;5031835;28;20041;-81
2021/09/24 01:27:51;;;;;;;32.83;3.95;;;11.90;99.90;;;;;;5031978;28;20075;-81
2021/09/24 01:30:17;;;;;;;27.40;4.25;;;11.90;99.90;;;;;;5031855;28;20072;-81
2021/09/24 01:32:44;;;;;;;40.67;4.65;;;12.00;99.90;;;;;;5032885;28;20049;-81
2021/09/24 01:35:11;;;;;;;33.50;4.05;;;12.00;99.90;;;;;;5032970;28;20026;-81
2021/09/24 01:37:37;;;;;;;28.20;4.18;;;12.00;99.90;;;;;;5032984;28;20489;-80
2021/09/24 01:40:07;;;;;;;30.23;4.95;;;12.00;99.90;;;;;;5033054;28;20087;-81
2021/09/24 01:42:33;;;;;;;42.38;6.10;;;12.00;99.90;;;;;;5031649;28;20063;-80
2021/09/24 01:44:58;;;;;;;38.85;4.65;;;12.00;99.90;;;;;;5032319;28;20056;-80
2021/09/24 01:47:24;;;;;;;42.53;6.38;;;11.90;99.90;;;;;;5032587;28;20040;-80
2021/09/24 01:49:49;;;;;;;32.67;3.45;;;11.90;99.90;;;;;;5032731;28;20394;-80
2021/09/24 01:52:15;;;;;;;35.35;4.68;;;11.80;99.90;;;;;;5032620;28;20025;-80
2021/09/24 01:54:41;;;;;;;35.13;5.25;;;11.70;99.90;;;;;;5032138;28;20026;-80
2021/09/24 01:57:06;;;;;;;35.97;4.88;;;11.70;99.90;;;;;;5032357;28;20028;-81
2021/09/24 01:59:32;;;;;;;38.97;5.70;;;11.70;99.90;;;;;;5042238;28;20070;-80
2021/09/24 02:01:57;;;;;;;38.10;4.95;;;11.70;99.90;;;;;;5052514;28;20029;-80
2021/09/24 02:04:23;;;;;;;33.25;5.07;;;11.70;99.90;;;;;;5042616;28;20159;-81
2021/09/24 02:06:48;;;;;;;53.05;4.18;;;11.70;99.90;;;;;;5032363;28;20075;-80
2021/09/24 02:09:14;;;;;;;30.17;4.90;;;11.80;99.90;;;;;;5032387;28;20026;-81
2021/09/24 02:11:40;;;;;;;38.83;5.45;;;11.70;99.90;;;;;;5032449;28;20022;-82
2021/09/24 02:14:06;;;;;;;40.13;5.70;;;11.80;99.90;;;;;;5031932;28;20036;-80
2021/09/24 02:16:32;;;;;;;41.60;5.22;;;11.70;99.90;;;;;;5032440;28;20053;-81
2021/09/24 02:18:57;;;;;;;49.08;6.38;;;11.70;99.90;;;;;;5031074;28;20501;-81
2021/09/24 02:21:23;;;;;;;39.25;6.32;;;11.70;99.90;;;;;;5032245;28;20103;-80
2021/09/24 02:23:49;;;;;;;30.83;4.45;;;11.80;99.90;;;;;;5031944;28;20060;-80
2021/09/24 02:26:14;;;;;;;45.58;6.85;;;11.70;99.90;;;;;;5031900;28;20051;-80
2021/09/24 02:28:42;;;;;;;42.88;6.47;;;11.80;99.90;;;;;;5032095;28;20030;-80
2021/09/24 02:31:11;;;;;;;41.97;6.22;;;11.80;99.90;;;;;;5032145;28;20029;-80
2021/09/24 02:33:37;;;;;;;48.58;7.05;;;11.80;99.90;;;;;;5039461;28;20116;-80
2021/09/24 02:36:08;;;;;;;30.45;5.05;;;11.90;99.90;;;;;;5035841;28;20104;-80
2021/09/24 02:38:34;;;;;;;35.08;5.35;;;11.90;99.90;;;;;;5032087;28;20494;-80
2021/09/24 02:41:01;;;;;;;46.40;6.10;;;11.90;99.90;;;;;;5031965;28;20032;-80
2021/09/24 02:43:26;;;;;;;59.78;7.65;;;11.80;99.90;;;;;;5031813;28;20030;-81
2021/09/24 02:45:52;;;;;;;55.47;5.60;;;11.80;99.90;;;;;;5031521;28;20521;-80
2021/09/24 02:48:18;;;;;;;55.90;6.70;;;11.80;99.90;;;;;;5031949;28;20079;-80
2021/09/24 02:50:45;;;;;;;59.88;8.05;;;11.80;99.90;;;;;;5031794;28;20467;-81
2021/09/24 02:53:11;;;;;;;51.85;6.78;;;11.90;99.90;;;;;;5031770;28;20021;-81
2021/09/24 02:55:36;;;;;;;46.53;5.57;;;11.80;99.90;;;;;;5031283;28;20665;-80
2021/09/24 02:58:02;;;;;;;51.33;5.93;;;11.80;99.90;;;;;;5031790;28;20025;-80
2021/09/24 03:00:27;;;;;;;39.28;6.30;;;11.80;99.90;;;;;;5050281;28;20040;-80
2021/09/24 03:02:53;;;;;;;40.05;5.13;;;11.90;99.90;;;;;;5051428;28;20044;-79
2021/09/24 03:05:19;;;;;;;42.85;5.05;;;11.90;99.90;;;;;;5044601;28;20068;-80
2021/09/24 03:07:45;;;;;;;36.60;5.75;;;11.90;99.90;;;;;;5030086;28;20032;-80
2021/09/24 03:10:11;;;;;;;42.40;5.10;;;11.80;99.90;;;;;;5034062;28;20033;-81
2021/09/24 03:12:37;;;;;;;44.25;7.00;;;11.80;99.90;;;;;;5035847;28;20026;-81
2021/09/24 03:15:05;;;;;;;38.22;6.03;;;11.70;99.90;;;;;;5035186;28;20028;-80
2021/09/24 03:17:30;;;;;;;39.22;6.43;;;11.70;99.90;;;;;;5035441;28;20393;-80
2021/09/24 03:19:56;;;;;;;45.97;7.03;;;11.70;99.90;;;;;;5034433;28;20030;-81
2021/09/24 03:22:22;;;;;;;42.47;5.70;;;11.60;99.90;;;;;;5035480;28;20036;-80
2021/09/24 03:24:48;;;;;;;36.58;5.75;;;11.70;99.90;;;;;;5035331;28;20029;-80
2021/09/24 03:27:13;;;;;;;34.85;5.18;;;11.60;99.90;;;;;;5035269;28;20036;-81
2021/09/24 03:29:39;;;;;;;45.60;4.97;;;11.50;99.90;;;;;;5035437;28;20033;-80
2021/09/24 03:32:05;;;;;;;44.22;6.35;;;11.50;99.90;;;;;;5035416;28;20390;-80
2021/09/24 03:34:31;;;;;;;42.15;6.25;;;11.50;99.90;;;;;;5035072;28;20021;-80
2021/09/24 03:36:56;;;;;;;49.42;7.80;;;11.50;99.90;;;;;;5034989;28;20032;-80
2021/09/24 03:39:22;;;;;;;47.72;5.57;;;11.60;99.90;;;;;;5034010;28;20036;-80
2021/09/24 03:41:47;;;;;;;41.70;7.80;;;11.60;99.90;;;;;;5035251;28;20052;-80
2021/09/24 03:44:13;;;;;;;38.70;6.13;;;11.60;99.90;;;;;;5033689;28;20029;-80
2021/09/24 03:46:39;;;;;;;39.20;5.97;;;11.60;99.90;;;;;;5034699;28;20480;-80
2021/09/24 03:49:05;;;;;;;43.65;6.40;;;11.60;99.90;;;;;;5033821;28;20033;-80
2021/09/24 03:51:31;;;;;;;48.13;6.32;;;11.70;99.90;;;;;;5033763;28;20026;-80
2021/09/24 03:53:56;;;;;;;38.53;6.10;;;11.80;99.90;;;;;;5034725;28;20105;-81
2021/09/24 03:56:22;;;;;;;51.17;6.60;;;11.80;99.90;;;;;;5034698;28;20036;-80
2021/09/24 03:58:48;;;;;;;45.63;6.78;;;11.80;99.90;;;;;;5038273;28;20116;-80
2021/09/24 04:01:13;;;;;;;46.63;6.20;;;11.80;99.90;;;;;;5054823;28;20060;-81
2021/09/24 04:03:39;;;;;;;53.25;8.50;;;11.70;99.90;;;;;;5053190;28;20033;-80
2021/09/24 04:06:05;;;;;;;55.17;7.03;;;11.70;99.90;;;;;;5054536;28;20037;-80
2021/09/24 04:08:30;;;;;;;47.95;7.20;;;11.60;99.90;;;;;;5038620;28;20037;-80
2021/09/24 04:10:56;;;;;;;53.10;8.60;;;11.50;99.90;;;;;;5033495;28;20034;-80
2021/09/24 04:13:22;;;;;;;40.15;4.97;;;11.50;99.90;;;;;;5034616;28;20026;-80
2021/09/24 04:15:48;;;;;;;63.85;6.90;;;11.60;99.90;;;;;;5034452;28;20028;-80
2021/09/24 04:18:13;;;;;;;39.85;5.97;;;11.50;99.90;;;;;;5033001;28;20029;-80
2021/09/24 04:20:39;;;;;;;57.83;6.13;;;11.50;99.90;;;;;;5032708;28;20401;-80
2021/09/24 04:23:04;;;;;;;41.70;5.90;;;11.50;99.90;;;;;;5034366;28;20114;-81
2021/09/24 04:25:30;;;;;;;49.78;5.18;;;11.50;99.90;;;;;;5034268;28;20048;-80
2021/09/24 04:27:56;;;;;;;35.35;6.40;;;11.50;99.90;;;;;;5034103;28;20445;-80
2021/09/24 04:30:21;;;;;;;52.72;6.40;;;11.50;99.90;;;;;;5033013;28;20029;-80
2021/09/24 04:32:47;;;;;;;45.08;6.68;;;11.50;99.90;;;;;;5032874;28;20095;-80
2021/09/24 04:35:13;;;;;;;57.65;6.72;;;11.50;99.90;;;;;;5032834;28;20021;-80
2021/09/24 04:37:39;;;;;;;36.88;6.88;;;11.50;99.90;;;;;;5034248;28;20396;-80
2021/09/24 04:40:05;;;;;;;44.85;7.03;;;11.50;99.90;;;;;;5033960;28;20029;-81
2021/09/24 04:42:31;;;;;;;44.70;5.47;;;11.50;99.90;;;;;;5034070;28;20513;-80
2021/09/24 04:44:56;;;;;;;41.05;6.15;;;11.50;99.90;;;;;;5033807;28;20029;-80
2021/09/24 04:47:22;;;;;;;40.25;4.93;;;11.50;99.90;;;;;;5033981;28;20045;-80
2021/09/24 04:49:47;;;;;;;37.50;6.35;;;11.40;99.90;;;;;;5032422;28;20079;-80
2021/09/24 04:52:13;;;;;;;37.45;5.10;;;11.40;99.90;;;;;;5033950;28;20394;-80
2021/09/24 04:54:38;;;;;;;45.47;6.93;;;11.40;99.90;;;;;;5033624;28;20026;-80
2021/09/24 04:57:04;;;;;;;36.67;5.88;;;11.50;99.90;;;;;;5032666;28;20021;-80
2021/09/24 04:59:30;;;;;;;47.03;5.22;;;11.50;99.90;;;;;;5034871;28;20030;-80
2021/09/24 05:01:55;;;;;;;65.85;8.23;;;11.50;99.90;;;;;;5033732;28;20025;-81
2021/09/24 05:04:21;;;;;;;55.13;5.28;;;11.50;99.90;;;;;;5032085;28;20043;-81
2021/09/24 05:06:46;;;;;;;39.08;6.57;;;11.50;99.90;;;;;;5033612;28;20061;-80
2021/09/24 05:09:12;;;;;;;30.20;6.35;;;11.60;99.90;;;;;;5031859;28;20025;-80
2021/09/24 05:11:38;;;;;;;41.35;6.00;;;11.60;99.90;;;;;;5033640;28;20479;-80
2021/09/24 05:14:04;;;;;;;39.78;6.53;;;11.60;99.90;;;;;;5033189;28;20079;-80
2021/09/24 05:16:30;;;;;;;47.30;6.03;;;11.70;99.90;;;;;;5032288;28;20021;-80
2021/09/24 05:18:55;;;;;;;30.83;4.82;;;11.70;99.90;;;;;;5033529;28;20021;-80
2021/09/24 05:21:21;;;;;;;44.17;6.60;;;11.60;99.90;;;;;;5032686;28;20652;-81
2021/09/24 05:23:47;;;;;;;38.72;5.93;;;11.60;99.90;;;;;;5033173;28;20032;-80
2021/09/24 05:26:12;;;;;;;52.65;7.10;;;11.60;99.90;;;;;;5033328;28;20079;-80
2021/09/24 05:28:38;;;;;;;44.10;5.95;;;11.60;99.90;;;;;;5033123;28;20029;-80
2021/09/24 05:31:04;;;;;;;73.30;7.45;;;11.60;99.90;;;;;;5031195;28;20529;-80
2021/09/24 05:33:30;;;;;;;36.50;6.32;;;11.60;99.90;;;;;;5039656;28;20040;-80
2021/09/24 05:35:57;;;;;;;44.08;7.13;;;11.60;99.90;;;;;;5038464;28;20436;-80
2021/09/24 05:38:23;;;;;;;35.25;6.30;;;11.60;99.90;;;;;;5033149;28;20036;-80
2021/09/24 05:40:48;;;;;;;54.03;8.07;;;11.70;99.90;;;;;;5032542;28;20034;-80
2021/09/24 05:43:14;;;;;;;46.83;6.30;;;11.60;99.90;;;;;;5032823;28;20038;-80
2021/09/24 05:45:39;;;;;;;50.38;5.97;;;11.90;99.90;;;;;;5031562;28;20520;-80
2021/09/24 05:48:05;;;;;;;59.42;7.60;;;12.10;99.90;;;;;;5031671;28;20033;-80
2021/09/24 05:50:31;;;;;;;44.65;6.13;;;12.10;99.90;;;;;;5032451;28;20026;-80
2021/09/24 05:52:58;;;;;;;41.28;6.40;;;12.20;99.90;;;;;;5032742;28;20025;-80
2021/09/24 05:55:24;;;;;;;40.15;6.38;;;12.40;99.90;;;;;;5032612;28;20049;-81
2021/09/24 05:57:51;;;;;;;48.70;6.75;;;12.60;99.90;;;;;;5031420;28;20044;-80
2021/09/24 06:00:19;;;;;;;45.13;6.78;;;12.60;99.90;;;;;;5049613;28;20110;-80
2021/09/24 06:02:45;;;;;;;57.25;7.68;;;12.90;99.90;;;;;;5030071;28;20502;-81
2021/09/24 06:05:12;;;;;;;51.85;7.85;;;13.00;99.90;;;;;;5032056;28;20034;-80
2021/09/24 06:07:38;;;;;;;40.55;6.53;;;13.20;99.90;;;;;;5032263;28;20022;-80
2021/09/24 06:10:06;;;;;;;45.17;6.53;;;13.30;99.90;;;;;;5032024;28;20140;-81
2021/09/24 06:12:32;;;;;;;48.05;6.43;;;13.30;99.90;;;;;;5031960;28;20028;-81
2021/09/24 06:15:00;;;;;;;46.90;6.80;;;13.40;99.90;;;;;;5030919;28;20124;-80
2021/09/24 06:17:26;;;;;;;46.60;6.93;;;13.40;99.90;;;;;;5031988;28;20074;-81
2021/09/24 06:19:52;;;;;;;44.00;6.50;;;13.50;99.90;;;;;;5032142;28;20075;-81
2021/09/24 06:22:18;;;;;;;39.88;6.82;;;13.40;99.90;;;;;;5030462;28;20060;-80
2021/09/24 06:24:45;;;;;;;41.50;6.75;;;13.50;99.90;;;;;;5030629;28;20037;-81
2021/09/24 06:27:14;;;;;;;51.22;6.18;;;13.60;99.90;;;;;;5032139;28;20094;-81
2021/09/24 06:29:50;;;;;;;47.22;6.70;;;13.60;99.90;;;;;;5032016;28;20026;-80
2021/09/24 06:32:17;;;;;;;47.42;7.45;;;13.70;99.90;;;;;;5030834;28;20032;-81
2021/09/24 06:34:46;;;;;;;45.97;7.15;;;13.80;99.90;;;;;;5031261;28;20033;-81
2021/09/24 06:37:12;;;;;;;47.85;7.72;;;13.80;99.90;;;;;;5030609;28;20056;-81
2021/09/24 06:39:38;;;;;;;35.35;7.07;;;13.90;99.90;;;;;;5030637;28;20095;-81
2021/09/24 06:42:04;;;;;;;35.45;5.07;;;13.90;99.90;;;;;;5031971;28;20025;-81
2021/09/24 06:44:30;;;;;;;44.45;5.85;;;14.00;99.90;;;;;;5029299;28;20025;-81
2021/09/24 06:46:56;;;;;;;40.42;5.95;;;14.10;99.90;;;;;;5030697;28;20418;-81
2021/09/24 06:49:23;;;;;;;40.83;6.40;;;14.20;99.90;;;;;;5031595;28;20110;-80
2021/09/24 06:51:53;;;;;;;45.85;5.95;;;14.30;99.90;;;;;;5031756;28;20017;-81
2021/09/24 06:54:18;;;;;;;41.67;5.53;;;14.30;99.90;;;;;;5031238;28;20022;-81
2021/09/24 06:56:44;;;;;;;29.08;4.88;;;14.30;99.90;;;;;;5031735;28;20030;-83
2021/09/24 06:59:10;;;;;;;43.08;5.57;;;14.40;99.90;;;;;;5039590;28;20025;-80
2021/09/24 07:01:35;;;;;;;31.35;5.57;;;14.50;99.90;;;;;;5051591;28;20021;-81
2021/09/24 07:04:01;;;;;;;33.72;5.55;;;14.50;99.90;;;;;;5045902;28;20061;-81
2021/09/24 07:06:26;;;;;;;34.95;5.97;;;14.50;99.90;;;;;;5031630;28;20084;-81
2021/09/24 07:08:52;;;;;;;32.85;5.05;;;14.60;99.90;;;;;;5031307;28;20548;-81
2021/09/24 07:11:18;;;;;;;33.08;5.18;;;14.70;99.90;;;;;;5030462;28;20433;-81
2021/09/24 07:13:44;;;;;;;37.88;5.15;;;14.80;99.90;;;;;;5031266;28;20507;-81
2021/09/24 07:16:09;;;;;;;43.42;6.43;;;14.80;99.90;;;;;;5029828;28;20071;-80
2021/09/24 07:18:35;;;;;;;48.95;5.15;;;14.90;99.90;;;;;;5030300;28;20113;-80
2021/09/24 07:21:00;;;;;;;32.42;4.80;;;14.90;99.90;;;;;;5031504;28;20033;-80
2021/09/24 07:23:26;;;;;;;29.80;4.82;;;14.90;99.90;;;;;;5031508;28;20029;-81
2021/09/24 07:25:52;;;;;;;37.28;4.75;;;14.90;99.90;;;;;;5031039;28;20029;-81
2021/09/24 07:28:18;;;;;;;34.38;4.55;;;15.00;99.90;;;;;;5031498;28;20498;-81
2021/09/24 07:30:43;;;;;;;29.80;4.30;;;15.10;99.90;;;;;;5031168;28;20386;-81
2021/09/24 07:33:09;;;;;;;28.30;4.07;;;15.00;99.90;;;;;;5030110;28;20389;-81
2021/09/24 07:35:35;;;;;;;46.90;8.98;;;15.00;99.90;;;;;;5030906;28;20094;-81
2021/09/24 07:38:01;;;;;;;32.45;4.70;;;15.00;99.90;;;;;;5031432;28;20026;-81
2021/09/24 07:40:28;;;;;;;24.48;5.63;;;14.90;99.90;;;;;;5031423;28;20107;-81
2021/09/24 07:42:53;;;;;;;24.05;4.13;;;14.90;99.90;;;;;;5029921;28;20036;-81
2021/09/24 07:45:20;;;;;;;25.40;4.40;;;15.00;99.90;;;;;;5030754;28;20038;-82
2021/09/24 07:47:46;;;;;;;30.42;3.15;;;15.10;99.90;;;;;;5031233;28;20104;-81
2021/09/24 07:50:12;;;;;;;24.17;5.65;;;15.10;99.90;;;;;;5029984;28;20120;-81
2021/09/24 07:52:37;;;;;;;38.83;4.93;;;15.10;99.90;;;;;;5029941;28;20076;-80
2021/09/24 07:55:03;;;;;;;32.10;3.83;;;15.10;99.90;;;;;;5031349;28;20049;-81
2021/09/24 07:57:29;;;;;;;32.97;5.50;;;15.10;99.90;;;;;;5034653;28;20559;-81
2021/09/24 07:59:55;;;;;;;24.00;3.67;;;15.10;99.90;;;;;;5048686;28;20025;-81
2021/09/24 08:02:20;;;;;;;25.45;3.95;;;15.10;99.90;;;;;;5054880;28;20095;-81
2021/09/24 08:04:46;;;;;;;20.92;3.65;;;15.10;99.90;;;;;;5054667;28;20072;-81
2021/09/24 08:07:12;;;;;;;27.20;3.97;;;15.20;99.90;;;;;;5041788;28;20107;-81
2021/09/24 08:09:37;;;;;;;30.20;5.85;;;15.20;99.90;;;;;;5034505;28;20025;-81
2021/09/24 08:12:03;;;;;;;28.65;4.82;;;15.20;99.90;;;;;;5034485;28;20112;-80
2021/09/24 08:14:29;;;;;;;32.42;4.13;;;15.20;99.90;;;;;;5034427;28;20083;-79
2021/09/24 08:16:54;;;;;;;37.40;5.57;;;15.20;99.90;;;;;;5034354;28;20037;-79
2021/09/24 08:19:20;;;;;;;20.13;3.40;;;15.10;99.90;;;;;;5034430;28;20036;-80
2021/09/24 08:21:45;;;;;;;33.78;4.75;;;15.20;99.90;;;;;;5034546;28;20032;-80
2021/09/24 08:24:11;;;;;;;22.63;3.97;;;15.20;99.90;;;;;;5034216;28;20059;-80
2021/09/24 08:26:37;;;;;;;28.85;4.13;;;15.30;99.90;;;;;;5033805;28;20032;-81
2021/09/24 08:29:03;;;;;;;19.90;3.83;;;15.20;99.90;;;;;;5033831;28;20408;-81
2021/09/24 08:31:30;;;;;;;27.73;4.22;;;15.20;99.90;;;;;;5034252;28;20021;-82
2021/09/24 08:33:58;;;;;;;25.98;4.28;;;15.30;99.90;;;;;;5032657;28;20641;-81
2021/09/24 08:36:24;;;;;;;18.40;2.70;;;15.30;99.90;;;;;;5045155;28;20057;-81
2021/09/24 08:38:50;;;;;;;24.08;3.55;;;15.40;99.90;;;;;;5032765;28;20064;-79
2021/09/24 08:41:16;;;;;;;26.25;4.75;;;15.40;99.90;;;;;;5033997;28;20061;-79
2021/09/24 08:43:41;;;;;;;25.35;4.18;;;15.30;99.90;;;;;;5032648;28;20021;-79
2021/09/24 08:46:08;;;;;;;20.92;3.75;;;15.20;99.90;;;;;;5032845;28;20025;-80
2021/09/24 08:48:34;;;;;;;30.02;4.18;;;15.10;99.90;;;;;;5033652;28;20044;-79
2021/09/24 08:51:00;;;;;;;29.23;5.38;;;15.00;99.90;;;;;;5034234;28;20101;-80
2021/09/24 08:53:26;;;;;;;26.80;4.05;;;14.90;99.90;;;;;;5033896;28;20104;-82
2021/09/24 08:55:52;;;;;;;27.38;4.07;;;14.80;99.90;;;;;;5033536;28;20060;-81
2021/09/24 08:58:19;;;;;;;23.83;4.40;;;14.70;99.90;;;;;;5021533;28;20485;-85
2021/09/24 09:00:45;;;;;;;18.48;3.28;;;14.70;99.90;;;;;;5031164;28;20029;-85
2021/09/24 09:03:18;;;;;;;31.40;4.68;;;14.60;99.90;;;;;;5029293;28;20772;-85
2021/09/24 09:05:46;;;;;;;22.17;3.93;;;14.50;99.90;;;;;;5028597;28;20554;-83
2021/09/24 09:08:14;;;;;;;26.48;3.55;;;14.60;99.90;;;;;;5028715;28;20265;-84
2021/09/24 09:10:48;;;;;;;25.42;5.15;;;14.60;99.90;;;;;;5029262;28;20459;-84
2021/09/24 09:13:17;;;;;;;20.15;3.72;;;14.60;99.90;;;;;;5029512;28;20080;-85
2021/09/24 09:15:58;;;;;;;23.60;4.20;;;14.60;99.90;;;;;;5028812;28;20024;-83
2021/09/24 09:18:24;;;;;;;25.58;4.32;;;14.60;99.90;;;;;;5027766;28;20453;-83
2021/09/24 09:20:51;;;;;;;24.08;3.45;;;14.60;99.90;;;;;;5029266;28;20025;-84
2021/09/24 09:23:19;;;;;;;25.27;3.78;;;14.70;99.90;;;;;;5029179;28;20033;-84
2021/09/24 09:25:47;;;;;;;31.90;3.72;;;14.70;99.90;;;;;;5028688;28;20087;-83
2021/09/24 09:28:38;;;;;;;29.73;4.10;;;14.70;99.90;;;;;;5027280;28;20457;-83
2021/09/24 09:31:17;;;;;;;19.73;3.17;;;14.80;99.90;;;;;;5029486;28;20504;-83
2021/09/24 09:33:42;;;;;;;22.73;4.63;;;14.90;99.90;;;;;;5027379;28;20036;-81
2021/09/24 09:36:08;;;;;;;23.40;3.95;;;14.90;99.90;;;;;;5028597;28;20035;-84
2021/09/24 09:38:40;;;;;;;22.88;4.03;;;15.00;99.90;;;;;;5027612;28;20021;-84
2021/09/24 09:41:12;;;;;;;19.27;3.38;;;15.10;99.90;;;;;;5027297;28;20033;-81
2021/09/24 09:43:43;;;;;;;20.60;4.32;;;15.20;99.90;;;;;;5027263;28;20037;-84
2021/09/24 09:46:17;;;;;;;13.20;3.42;;;15.30;99.90;;;;;;5031481;28;20121;-83
2021/09/24 09:48:45;;;;;;;20.30;3.33;;;15.50;99.90;;;;;;5022868;28;20033;-82
2021/09/24 09:51:19;;;;;;;14.43;3.22;;;15.50;99.90;;;;;;5027260;28;20540;-83
2021/09/24 09:53:49;;;;;;;19.75;3.85;;;15.60;99.90;;;;;;5023893;28;20560;-83
2021/09/24 09:56:14;;;;;;;19.40;4.65;;;15.50;99.90;;;;;;5025017;28;20080;-84
2021/09/24 09:58:40;;;;;;;23.90;3.88;;;15.50;99.90;;;;;;5027306;28;20425;-83
2021/09/24 10:01:13;;;;;;;15.13;3.95;;;15.40;99.90;;;;;;5027939;28;20434;-83
2021/09/24 10:03:53;;;;;;;17.98;4.63;;;15.50;99.90;;;;;;5028545;28;20029;-83
2021/09/24 10:06:26;;;;;;;19.95;6.00;;;15.60;99.90;;;;;;5028040;28;20084;-82
2021/09/24 10:08:56;;;;;;;24.33;5.07;;;15.60;99.90;;;;;;5027813;28;20021;-82
2021/09/24 10:11:39;;;;;;;35.53;5.18;;;15.70;99.90;;;;;;5027921;28;20486;-83
2021/09/24 10:14:13;;;;;;;30.25;5.90;;;15.70;99.90;;;;;;5028261;28;20040;-83
2021/09/24 10:16:48;;;;;;;24.90;4.82;;;15.70;99.90;;;;;;5028559;28;20040;-83
2021/09/24 10:19:15;;;;;;;32.97;8.85;;;15.90;99.90;;;;;;5021261;28;20449;-83
2021/09/24 10:21:41;;;;;;;39.17;6.25;;;15.80;99.90;;;;;;5027954;28;20017;-83
2021/09/24 10:24:07;;;;;;;31.60;5.82;;;15.90;99.90;;;;;;5025532;28;20076;-83
2021/09/24 10:26:42;;;;;;;30.65;5.88;;;15.80;99.90;;;;;;5026245;28;20053;-84
2021/09/24 10:29:20;;;;;;;30.95;5.55;;;15.80;99.90;;;;;;5024793;28;20119;-84
2021/09/24 10:31:53;;;;;;;26.80;5.47;;;15.90;99.90;;;;;;5025285;28;20406;-85
2021/09/24 10:34:20;;;;;;;44.53;5.85;;;15.90;99.90;;;;;;5027101;28;20022;-86
2021/09/24 10:36:48;;;;;;;38.70;6.80;;;15.80;99.90;;;;;;5021299;28;20064;-86
2021/09/24 10:39:29;;;;;;;35.28;7.68;;;15.80;99.90;;;;;;5025457;28;20037;-87
2021/09/24 10:42:21;;;;;;;36.80;6.95;;;15.70;99.90;;;;;;5026418;28;20029;-84
2021/09/24 10:45:06;;;;;;;29.10;7.05;;;15.80;99.90;;;;;;5026918;28;20477;-86
2021/09/24 10:47:48;;;;;;;34.55;5.75;;;15.70;99.90;;;;;;5017798;28;20084;-83
2021/09/24 10:50:47;;;;;;;22.77;5.38;;;15.90;99.90;;;;;;5021228;28;20041;-83
2021/09/24 10:53:18;;;;;;;29.33;5.25;;;16.00;99.90;;;;;;5027626;28;20100;-82
2021/09/24 10:55:52;;;;;;;42.00;7.35;;;16.00;99.90;;;;;;5026744;28;20083;-83
2021/09/24 10:58:27;;;;;;;35.85;6.78;;;16.10;99.90;;;;;;5022127;28;20048;-87
2021/09/24 11:00:56;;;;;;;36.22;6.82;;;16.10;99.90;;;;;;5026266;28;20103;-85
2021/09/24 11:03:24;;;;;;;39.75;5.70;;;16.20;99.90;;;;;;5011527;28;20040;-84
2021/09/24 11:05:56;;;;;;;38.05;6.43;;;16.30;99.90;;;;;;5022938;28;20033;-84
2021/09/24 11:08:34;;;;;;;25.70;6.28;;;16.30;99.90;;;;;;5030092;28;20405;-83
2021/09/24 11:11:06;;;;;;;31.50;6.10;;;16.40;99.90;;;;;;5031583;28;20482;-82
2021/09/24 11:13:34;;;;;;;28.35;5.50;;;16.50;99.90;;;;;;5031554;28;20166;-84
2021/09/24 11:16:01;;;;;;;24.33;5.40;;;16.50;99.90;;;;;;5029830;28;20029;-87
2021/09/24 11:18:52;;;;;;;23.10;5.15;;;16.60;99.90;;;;;;5031568;28;20122;-86
2021/09/24 11:21:42;;;;;;;22.65;5.50;;;16.60;99.90;;;;;;5031686;28;20029;-86
2021/09/24 11:24:29;;;;;;;23.40;5.57;;;16.50;99.90;;;;;;4993296;28;20504;-85
2021/09/24 11:26:57;;;;;;;19.83;4.47;;;16.60;99.90;;;;;;5031247;28;20493;-86
2021/09/24 11:29:23;;;;;;;23.95;6.50;;;16.60;99.90;;;;;;5030739;28;20029;-84
2021/09/24 11:32:03;;;;;;;32.30;5.68;;;16.60;99.90;;;;;;5034212;28;20525;-88
2021/09/24 11:34:36;;;;;;;20.48;4.18;;;16.50;99.90;;;;;;5031314;28;20131;-86
2021/09/24 11:37:07;;;;;;;23.10;5.53;;;16.60;99.90;;;;;;5036359;28;20056;-86
2021/09/24 11:39:35;;;;;;;44.13;6.35;;;16.60;99.90;;;;;;5042559;28;20064;-84
2021/09/24 11:42:09;;;;;;;31.05;5.43;;;16.50;99.90;;;;;;5033942;28;20540;-84
2021/09/24 11:44:42;;;;;;;37.22;7.05;;;16.50;99.90;;;;;;5033659;28;20029;-86
2021/09/24 11:47:24;;;;;;;30.15;5.55;;;16.70;99.90;;;;;;5033705;28;20064;-85
2021/09/24 11:49:57;;;;;;;33.67;5.53;;;16.60;99.90;;;;;;5033754;28;20113;-84
2021/09/24 11:52:32;;;;;;;30.90;5.10;;;16.70;99.90;;;;;;5035104;28;20432;-83
2021/09/24 11:55:17;;;;;;;34.67;5.20;;;16.70;99.90;;;;;;5034807;28;20033;-84
2021/09/24 11:58:00;;;;;;;38.03;6.63;;;16.70;99.90;;;;;;5033047;28;20375;-85
2021/09/24 12:00:31;;;;;;;40.58;5.70;;;16.80;99.90;;;;;;5052986;28;20025;-86
2021/09/24 12:03:19;;;;;;;36.95;5.47;;;16.90;99.90;;;;;;5053306;28;20095;-86
2021/09/24 12:05:56;;;;;;;51.85;6.35;;;16.90;99.90;;;;;;5054582;28;20033;-81
2021/09/24 12:08:27;;;;;;;29.90;6.32;;;16.90;99.90;;;;;;5033070;28;20137;-81
2021/09/24 12:11:05;;;;;;;36.13;5.60;;;16.90;99.90;;;;;;5026798;28;20034;-81
2021/09/24 12:13:42;;;;;;;37.28;6.45;;;17.00;99.90;;;;;;5024765;28;20497;-84
2021/09/24 12:16:11;;;;;;;28.55;6.00;;;17.00;99.90;;;;;;5030113;28;20088;-84
2021/09/24 12:18:53;;;;;;;47.10;6.07;;;16.90;99.90;;;;;;5029826;28;20480;-81
2021/09/24 12:21:46;;;;;;;28.17;5.70;;;16.80;99.90;;;;;;5028925;28;20053;-81
2021/09/24 12:24:12;;;;;;;28.90;6.80;;;16.80;99.90;;;;;;5024893;28;20033;-80
2021/09/24 12:26:43;;;;;;;36.42;6.75;;;16.80;99.90;;;;;;5030277;28;20028;-80
2021/09/24 12:29:17;;;;;;;38.35;7.38;;;16.80;99.90;;;;;;5030157;28;20061;-81
2021/09/24 12:31:52;;;;;;;38.80;7.25;;;16.80;99.90;;;;;;5029000;28;20021;-81
2021/09/24 12:34:21;;;;;;;47.67;7.97;;;16.90;99.90;;;;;;5029073;28;20439;-81
2021/09/24 12:36:52;;;;;;;47.60;7.25;;;17.00;99.90;;;;;;5028703;28;20779;-81
2021/09/24 12:39:21;;;;;;;29.38;6.85;;;16.90;99.90;;;;;;5029499;28;20045;-81